This is the latest recevied weather packets stored in our database for station/object GW1544. If no packets are shown the sender has not sent any weather packets the latest 10 day(s).
| Time | Temp. | Humidity | Pressure | Rain* | Wind** | Luminosity | Snow |
|---|---|---|---|---|---|---|---|
| 1777245158 | 16.11° C | 70% | 1023.7 hPa | 0 mm | - | - | - |
| 1777244805 | 16.67° C | 69% | 1023.7 hPa | 0 mm | - | - | - |
| 1777241198 | 18.33° C | 65% | 1023.7 hPa | 0 mm | - | - | - |
| 1777240488 | 18.89° C | 62% | 1023.7 hPa | 0 mm | - | - | - |
| 1777238679 | 20° C | 61% | 1023.3 hPa | 0 mm | - | - | - |
| 1777235814 | 20.56° C | 59% | 1023.7 hPa | 0 mm | - | - | - |
| 1777234359 | 20° C | 64% | 1024 hPa | 0 mm | - | - | - |
| 1777234000 | 20° C | 64% | 1024 hPa | 0 mm | - | - | - |
| 1777231817 | 18.33° C | 70% | 1024.3 hPa | 0 mm | - | - | - |
| 1777229659 | 18.89° C | 70% | 1024.3 hPa | 0 mm | - | - | - |
| 1777227175 | 16.67° C | 72% | 1024.7 hPa | 0 mm | - | - | - |
| 1777222106 | 16.11° C | 72% | 1024.7 hPa | 0 mm | - | - | - |
| 1777221386 | 16.11° C | 71% | 1024.7 hPa | 0 mm | - | - | - |
| 1777220659 | 16.67° C | 69% | 1024.7 hPa | 0 mm | - | - | - |
| 1777216009 | 15.56° C | 72% | 1024.7 hPa | 0 mm | - | - | - |
| 1777215257 | 15.56° C | 73% | 1024.7 hPa | 0 mm | - | - | - |
| 1777214931 | 16.11° C | 70% | 1024.7 hPa | 0 mm | - | - | - |
| 1777213826 | 16.11° C | 70% | 1024.3 hPa | 0 mm | - | - | - |
| 1777213102 | 16.67° C | 68% | 1024.3 hPa | 0 mm | - | - | - |
| 1777212051 | 14.44° C | 75% | 1024.3 hPa | 0 mm | - | - | - |
| 1777209158 | 13.33° C | 80% | 1024 hPa | 0 mm | - | - | - |
| 1777207359 | 13.33° C | 82% | 1023.7 hPa | 0 mm | - | - | - |
| 1777202317 | 13.33° C | 84% | 1023.3 hPa | 0 mm | - | - | - |
| 1777201941 | 13.33° C | 84% | 1023 hPa | 0 mm | - | - | - |
| 1777198332 | 13.33° C | 84% | 1022.3 hPa | 0 mm | - | - | - |
* Rain since midnight (hover to see other rain measurements)
** Current wind speed in m/s (hover to see current wind gust speed)